Saturday, January 19, 2019, 4:23 AM GMT
Back to Local

CWQH, Lennoxville

Location: , , Canada Lat: 45.367
Local Time: 4:23 AM GMT ( 4:23 GMT) Lon: -71.817
Time Zone: GMT Elev: 593 ft

Show me the last for .
Show Coded

Time T Td Feel RH Dir Speed Gust Alt SLP Vis Weather Sky Remarks
2019-01-19 04:00 17 8 5 69 310° 9 - - - 0 None
2019-01-19 03:00 17 9 6 67 310° 9 - - - 0 None
2019-01-19 02:00 18 10 7 70 320° 9 - - - 0 None
2019-01-19 01:00 20 13 5 73 280° 14 20 - - 0 Peak wind: 23 mph (20 kts) from 290° at 39 min
2019-01-19 00:00 23 18 7 81 280° 16 22 - - 0 Peak wind: 23 mph (20 kts) from 300° at 46 min
2019-01-18 23:00 25 21 14 86 250° 10 - - - 0 Peak wind: 19 mph (17 kts) from 260° at 35 min
2019-01-18 22:00 25 23 16 90 210° 9 - - - 0 None
2019-01-18 21:00 25 22 16 87 210° 9 - - - 0 None
2019-01-18 20:00 27 21 18 78 230° 8 - - - 0 None
2019-01-18 19:00 27 20 18 73 200° 9 - - - 0 None
2019-01-18 18:00 26 19 18 73 220° 8 - - - 0 None
2019-01-18 17:00 24 18 16 75 210° 7 - - - 0 None
2019-01-18 16:00 20 15 - 79 360° 1 - - - 0 None
2019-01-18 15:00 19 12 - 76 20° 1 - - - 0 None
2019-01-18 14:00 12 8 5 83 20° 3 - - - 0 None
2019-01-18 13:00 9 5 2 82 30° 3 - - - 0 None
2019-01-18 12:00 7 2 - 78 40° 1 - - - 0 None
2019-01-18 11:00 7 0 -2 73 40° 5 - - - 0 None
2019-01-18 10:00 5 -1 - 77 70° 2 - - - 0 None
2019-01-18 09:00 2 -4 - 76 180° 1 - - - 0 None
2019-01-18 08:00 2 -4 -9 74 50° 6 - - - 0 None
2019-01-18 07:00 2 -5 -9 73 40° 6 - - - 0 None
2019-01-18 06:00 1 -5 -11 74 50° 6 - - - 0 None
2019-01-18 05:00 0 -7 -12 73 40° 6 - - - 0 None

Support USWX by starting your Amazon purchase here.